Time;durP1;ratioP1;P1;durP2;ratioP2;P2;SDS_P1;SDS_P2;PMS_P1;PMS_P2;Temp;Humidity;BMP_temperature;BMP_pressure;BME280_temperature;BME280_humidity;BME280_pressure;Samples;Min_cycle;Max_cycle;Signal;HPM_P1;HPM_P2
2021/10/15 00:01:14;;;;;;;5.67;5.30;;;;;;;12.30;78.08;99410.56;5109200;28;20256;-72
2021/10/15 00:03:42;;;;;;;6.77;6.27;;;;;;;12.32;77.29;99406.72;5105403;28;20217;-72
2021/10/15 00:06:12;;;;;;;6.10;5.70;;;;;;;12.32;76.64;99395.09;5108958;28;20209;-72
2021/10/15 00:08:40;;;;;;;5.87;5.47;;;;;;;12.36;77.13;99404.56;5108062;28;20482;-72
2021/10/15 00:11:08;;;;;;;5.97;5.57;;;;;;;12.32;76.92;99389.72;5108802;28;20228;-72
2021/10/15 00:13:36;;;;;;;5.57;5.20;;;;;;;12.40;76.85;99382.59;5090835;28;20286;-72
2021/10/15 00:16:05;;;;;;;4.67;4.37;;;;;;;12.39;76.46;99383.59;5108271;28;20499;-72
2021/10/15 00:18:34;;;;;;;5.33;5.00;;;;;;;12.35;76.99;99370.56;5124204;27;20237;-72
2021/10/15 00:21:02;;;;;;;5.13;4.80;;;;;;;12.40;76.06;99370.97;5107319;28;20717;-72
2021/10/15 00:23:31;;;;;;;5.23;4.90;;;;;;;12.36;76.68;99364.19;5107109;28;20214;-72
2021/10/15 00:26:00;;;;;;;4.73;4.43;;;;;;;12.39;75.79;99361.19;5107966;28;20200;-73
2021/10/15 00:28:28;;;;;;;3.97;3.73;;;;;;;12.36;76.22;99356.97;5089538;28;20324;-72
2021/10/15 00:30:57;;;;;;;4.80;4.50;;;;;;;12.36;76.04;99351.56;5108646;28;20214;-72
2021/10/15 00:33:25;;;;;;;5.00;4.70;;;;;;;12.23;76.15;99326.00;5108818;28;20816;-72
2021/10/15 00:35:57;;;;;;;5.87;5.47;;;;;;;12.26;76.35;99318.50;5108184;28;20208;-72
2021/10/15 00:38:26;;;;;;;5.53;5.17;;;;;;;12.32;76.42;99338.56;5101630;28;20215;-72
2021/10/15 00:40:55;;;;;;;5.97;5.57;;;;;;;12.21;76.81;99336.06;5108107;28;20205;-72
2021/10/15 00:43:25;;;;;;;6.67;6.20;;;;;;;12.21;76.88;99326.13;5108640;28;20212;-72
2021/10/15 00:45:53;;;;;;;6.00;5.60;;;;;;;12.20;77.05;99323.59;5108231;28;20202;-72
2021/10/15 00:48:21;;;;;;;6.10;5.70;;;;;;;12.27;76.81;99308.56;5108513;28;20196;-72
2021/10/15 00:50:51;;;;;;;6.00;5.60;;;;;;;12.21;76.65;99309.16;5107867;28;20240;-72
2021/10/15 00:53:20;;;;;;;6.00;5.60;;;;;;;12.25;76.61;99316.78;5105773;28;20203;-72
2021/10/15 00:55:48;;;;;;;6.00;5.60;;;;;;;12.30;75.75;99303.72;5102871;28;20643;-72
2021/10/15 00:58:18;;;;;;;6.20;5.80;;;;;;;12.27;76.18;99301.34;5108531;28;20469;-72
2021/10/15 01:00:46;;;;;;;6.73;6.23;;;;;;;12.19;76.96;99295.84;5106139;28;20209;-72
2021/10/15 01:03:14;;;;;;;7.23;6.73;;;;;;;12.23;76.17;99285.63;5108021;28;20239;-72
2021/10/15 01:05:42;;;;;;;6.50;6.03;;;;;;;12.21;76.22;99303.75;5107820;28;20219;-72
2021/10/15 01:08:10;;;;;;;6.77;6.27;;;;;;;12.22;76.69;99284.78;5105775;28;20575;-72
2021/10/15 01:10:39;;;;;;;6.77;6.30;;;;;;;12.21;76.43;99277.69;5102762;28;20249;-72
2021/10/15 01:13:08;;;;;;;6.80;6.30;;;;;;;12.15;77.00;99269.38;5105284;28;20195;-72
2021/10/15 01:15:38;;;;;;;6.67;6.17;;;;;;;12.06;77.52;99258.53;5105694;28;20208;-71
2021/10/15 01:18:11;;;;;;;6.77;6.27;;;;;;;12.09;76.63;99252.84;5087433;28;20406;-71
2021/10/15 01:20:43;;;;;;;6.77;6.27;;;;;;;12.16;76.82;99246.84;5107874;28;20269;-71
2021/10/15 01:23:11;;;;;;;6.80;6.30;;;;;;;12.22;75.54;99247.09;5107703;28;20210;-71
2021/10/15 01:25:39;;;;;;;6.80;6.30;;;;;;;12.27;75.92;99239.44;5089482;28;20199;-71
2021/10/15 01:28:07;;;;;;;6.90;6.40;;;;;;;12.28;75.72;99229.50;5099278;28;20234;-72
2021/10/15 01:30:35;;;;;;;8.07;7.47;;;;;;;12.25;75.55;99229.81;5105161;28;20709;-72
2021/10/15 01:33:03;;;;;;;8.17;7.57;;;;;;;12.26;75.84;99231.50;5107484;28;20221;-72
2021/10/15 01:35:31;;;;;;;8.37;7.73;;;;;;;12.20;75.66;99216.78;5107668;28;20698;-72
2021/10/15 01:38:01;;;;;;;8.40;7.77;;;;;;;12.02;76.21;99186.34;5106807;28;20207;-72
2021/10/15 01:40:29;;;;;;;8.63;7.97;;;;;;;12.13;76.04;99218.41;5110318;28;20663;-72
2021/10/15 01:42:57;;;;;;;7.07;6.57;;;;;;;12.08;77.06;99213.47;5111779;28;20260;-72
2021/10/15 01:45:27;;;;;;;8.97;8.23;;;;;;;12.12;76.64;99206.78;5100493;28;20212;-72
2021/10/15 01:47:56;;;;;;;9.10;8.40;;;;;;;11.86;76.19;99153.88;5097774;28;20212;-72
2021/10/15 01:50:26;;;;;;;9.27;8.50;;;;;;;12.10;76.72;99208.78;5111909;28;20696;-72
2021/10/15 01:52:55;;;;;;;9.33;8.57;;;;;;;12.11;76.83;99193.50;5111564;28;20613;-72
2021/10/15 01:55:24;;;;;;;9.20;8.47;;;;;;;12.02;76.93;99181.81;5111491;28;20582;-72
2021/10/15 01:57:52;;;;;;;9.13;8.40;;;;;;;12.06;77.96;99191.25;5111593;28;20220;-72
2021/10/15 02:00:20;;;;;;;9.23;8.50;;;;;;;12.15;77.08;99191.34;5111409;28;20231;-72
2021/10/15 02:02:49;;;;;;;8.87;8.17;;;;;;;12.07;77.51;99163.34;5100145;28;20395;-72
2021/10/15 02:05:18;;;;;;;9.23;8.50;;;;;;;12.28;76.77;99186.44;5111755;28;20207;-72
2021/10/15 02:07:47;;;;;;;9.37;8.63;;;;;;;12.25;76.77;99176.00;5109831;28;20221;-72
2021/10/15 02:10:17;;;;;;;9.10;8.37;;;;;;;12.08;76.85;99142.66;5111871;28;20292;-72
2021/10/15 02:12:47;;;;;;;9.37;8.60;;;;;;;12.39;75.64;99161.97;5093003;28;20205;-72
2021/10/15 02:15:17;;;;;;;9.40;8.63;;;;;;;12.41;75.81;99168.03;5110513;28;20201;-71
2021/10/15 02:17:47;;;;;;;9.60;8.80;;;;;;;12.04;76.44;99109.84;5111438;28;20524;-72
2021/10/15 02:20:17;;;;;;;9.50;8.70;;;;;;;12.31;75.98;99159.22;5092425;28;20767;-72
2021/10/15 02:22:47;;;;;;;9.13;8.43;;;;;;;12.32;76.02;99147.44;5111425;28;20212;-72
2021/10/15 02:25:17;;;;;;;9.57;8.77;;;;;;;12.34;75.80;99150.81;5111286;28;20679;-71
2021/10/15 02:27:48;;;;;;;9.13;8.40;;;;;;;12.37;76.15;99148.66;5111337;28;20649;-72
2021/10/15 02:30:18;;;;;;;9.43;8.67;;;;;;;12.30;76.61;99144.91;5110191;28;20656;-71
2021/10/15 02:32:47;;;;;;;9.70;8.90;;;;;;;12.25;76.35;99135.63;5110497;28;20202;-72
2021/10/15 02:35:18;;;;;;;9.57;8.77;;;;;;;12.21;76.66;99129.66;5110559;28;20284;-72
2021/10/15 02:37:46;;;;;;;9.43;8.70;;;;;;;12.26;76.86;99121.16;5091325;28;20211;-72
2021/10/15 02:40:15;;;;;;;9.70;8.90;;;;;;;12.23;76.34;99116.06;5111293;28;20205;-72
2021/10/15 02:42:43;;;;;;;9.90;9.10;;;;;;;12.23;76.30;99100.75;5111258;28;20600;-71
2021/10/15 02:45:13;;;;;;;9.47;8.70;;;;;;;12.11;76.94;99102.00;5092150;28;20211;-72
2021/10/15 02:47:41;;;;;;;9.60;8.80;;;;;;;12.15;77.18;99091.78;5110888;28;20572;-72
2021/10/15 02:50:10;;;;;;;9.43;8.63;;;;;;;12.05;77.56;99079.25;5109945;28;20690;-72
2021/10/15 02:52:38;;;;;;;9.50;8.70;;;;;;;12.10;77.34;99068.88;5109980;28;20212;-71
2021/10/15 02:55:07;;;;;;;9.80;9.00;;;;;;;12.05;77.49;99071.19;5110359;28;20908;-72
2021/10/15 02:57:35;;;;;;;9.27;8.50;;;;;;;12.00;77.69;99059.19;5110834;28;20231;-72
2021/10/15 03:00:04;;;;;;;9.77;8.97;;;;;;;12.08;77.47;99052.03;5109378;27;20203;-72
2021/10/15 03:02:34;;;;;;;9.70;8.90;;;;;;;12.12;77.31;99056.09;5109587;27;20213;-72
2021/10/15 03:05:02;;;;;;;9.17;8.43;;;;;;;12.12;77.75;99048.03;5110455;28;20567;-73
2021/10/15 03:07:34;;;;;;;9.77;8.97;;;;;;;12.06;77.72;99037.03;5110621;28;20644;-74
2021/10/15 03:10:02;;;;;;;9.67;8.87;;;;;;;12.09;77.66;99045.66;5107062;28;20203;-74
2021/10/15 03:12:30;;;;;;;9.93;9.10;;;;;;;12.20;77.39;99046.38;5110296;28;20211;-71
2021/10/15 03:14:58;;;;;;;10.13;9.27;;;;;;;12.19;76.97;99036.63;5101118;27;20813;-71
2021/10/15 03:17:26;;;;;;;10.00;9.20;;;;;;;12.13;77.39;99033.56;5106219;28;20669;-71
2021/10/15 03:19:56;;;;;;;9.90;9.10;;;;;;;12.21;77.23;99029.25;5119185;27;20212;-71
2021/10/15 03:22:24;;;;;;;10.33;9.43;;;;;;;11.93;77.66;98982.78;5110500;28;20204;-71
2021/10/15 03:24:52;;;;;;;10.03;9.20;;;;;;;12.24;76.49;99037.00;5103445;28;20210;-71
2021/10/15 03:27:20;;;;;;;9.90;9.10;;;;;;;12.06;77.68;99007.44;5102790;28;20745;-71
2021/10/15 03:29:48;;;;;;;10.03;9.20;;;;;;;11.73;78.25;98976.72;5108251;28;20203;-71
2021/10/15 03:32:16;;;;;;;9.40;8.63;;;;;;;12.01;78.52;99025.91;5108678;28;20221;-71
2021/10/15 03:34:44;;;;;;;9.37;8.60;;;;;;;11.97;78.62;99020.00;5108451;28;20208;-71
2021/10/15 03:37:14;;;;;;;9.23;8.47;;;;;;;11.92;78.26;99008.00;5107088;28;20589;-72
2021/10/15 03:39:42;;;;;;;9.07;8.33;;;;;;;12.02;77.92;99009.59;5106661;28;20208;-71
2021/10/15 03:42:10;;;;;;;8.83;8.13;;;;;;;12.09;77.51;99005.28;5108914;28;20207;-71
2021/10/15 03:44:38;;;;;;;9.47;8.67;;;;;;;12.06;78.39;99000.22;5100738;28;20209;-71
2021/10/15 03:47:06;;;;;;;8.93;8.23;;;;;;;12.13;77.87;98990.50;5125365;27;20226;-72
2021/10/15 03:49:34;;;;;;;8.90;8.20;;;;;;;12.08;78.10;98992.84;5109905;28;20209;-71
2021/10/15 03:52:03;;;;;;;9.37;8.60;;;;;;;11.78;79.44;98952.91;5105778;28;20709;-71
2021/10/15 03:54:32;;;;;;;9.07;8.33;;;;;;;12.10;78.76;98990.81;5113181;27;20204;-71
2021/10/15 03:57:00;;;;;;;9.13;8.40;;;;;;;12.00;79.67;98981.16;5114918;27;20460;-71
2021/10/15 03:59:29;;;;;;;8.57;7.90;;;;;;;12.08;78.58;98978.53;5112546;27;20203;-71
2021/10/15 04:01:57;;;;;;;9.20;8.43;;;;;;;12.00;78.97;98970.41;5105699;28;20684;-71
2021/10/15 04:04:25;;;;;;;8.90;8.17;;;;;;;12.05;79.26;98973.47;5108912;28;20270;-72
2021/10/15 04:06:53;;;;;;;9.37;8.60;;;;;;;11.93;80.55;98974.72;5123227;27;20224;-72
2021/10/15 04:09:22;;;;;;;8.83;8.13;;;;;;;11.97;79.73;98959.97;5108394;28;20231;-72
2021/10/15 04:11:51;;;;;;;8.83;8.13;;;;;;;11.96;80.13;98963.66;5100872;28;20219;-72
2021/10/15 04:14:19;;;;;;;8.43;7.77;;;;;;;11.96;81.01;98963.66;5103692;28;20217;-72
2021/10/15 04:16:47;;;;;;;8.77;8.07;;;;;;;12.10;80.65;98957.69;5102009;27;20199;-72
2021/10/15 04:19:15;;;;;;;9.17;8.40;;;;;;;12.04;80.77;98955.63;5107403;28;20196;-72
2021/10/15 04:21:44;;;;;;;8.37;7.70;;;;;;;11.99;82.78;98958.81;5109160;28;20649;-71
2021/10/15 04:24:12;;;;;;;8.57;7.87;;;;;;;12.04;82.63;98945.72;5107122;28;20654;-72
2021/10/15 04:26:40;;;;;;;8.37;7.70;;;;;;;12.12;82.74;98958.38;5110144;27;20218;-72
2021/10/15 04:29:09;;;;;;;8.70;8.00;;;;;;;12.19;81.67;98955.88;5089654;28;20224;-72
2021/10/15 04:31:37;;;;;;;8.57;7.87;;;;;;;11.96;81.36;98912.53;5105452;27;20227;-72
2021/10/15 04:34:06;;;;;;;8.87;8.17;;;;;;;12.29;79.81;98941.34;5101064;28;20205;-72
2021/10/15 04:36:35;;;;;;;9.23;8.47;;;;;;;12.25;80.98;98934.59;5104872;28;20220;-72
2021/10/15 04:39:03;;;;;;;9.27;8.50;;;;;;;12.21;81.36;98911.66;5103815;28;20201;-72
2021/10/15 04:41:32;;;;;;;9.90;9.10;;;;;;;12.28;80.43;98922.66;5104661;28;20203;-72
2021/10/15 04:44:00;;;;;;;9.70;8.90;;;;;;;12.26;81.25;98919.28;5106455;28;20223;-70
2021/10/15 04:46:29;;;;;;;10.13;9.30;;;;;;;12.21;80.98;98902.75;5106842;28;20545;-73
2021/10/15 04:48:57;;;;;;;9.47;8.70;;;;;;;12.27;80.94;98897.59;5102708;28;20213;-73
2021/10/15 04:51:27;;;;;;;9.73;8.93;;;;;;;12.29;80.11;98898.28;5098857;28;20761;-72
2021/10/15 04:53:55;;;;;;;8.47;7.83;;;;;;;12.23;80.42;98893.50;5104302;28;20738;-72
2021/10/15 04:56:23;;;;;;;7.90;7.30;;;;;;;12.12;80.83;98889.25;5102761;28;20272;-72
2021/10/15 04:58:51;;;;;;;8.80;8.10;;;;;;;12.22;80.78;98902.59;5102428;28;20201;-72
2021/10/15 05:01:19;;;;;;;8.80;8.10;;;;;;;12.06;80.33;98873.75;5107669;28;20196;-72
2021/10/15 05:03:49;;;;;;;8.70;8.00;;;;;;;12.30;79.62;98899.13;5106423;28;20201;-72
2021/10/15 05:06:17;;;;;;;9.67;8.90;;;;;;;12.35;79.64;98902.16;5098822;28;20212;-72
2021/10/15 05:09:00;;;;;;;9.03;8.33;;;;;;;12.27;80.47;98904.84;5106984;28;20212;-71
2021/10/15 05:11:28;;;;;;;9.10;8.40;;;;;;;12.29;80.58;98897.44;5105347;28;20225;-72
2021/10/15 05:13:57;;;;;;;9.47;8.70;;;;;;;12.32;80.25;98897.13;5104620;28;20207;-72
2021/10/15 05:16:25;;;;;;;9.20;8.47;;;;;;;12.31;80.74;98888.19;5103092;28;20694;-72
2021/10/15 05:19:01;;;;;;;9.07;8.33;;;;;;;12.36;79.69;98880.47;5104730;28;20204;-72
2021/10/15 05:21:34;;;;;;;8.90;8.17;;;;;;;12.43;78.92;98861.81;5099278;28;20198;-73
2021/10/15 05:24:02;;;;;;;9.63;8.83;;;;;;;12.37;79.75;98873.25;5105824;28;20687;-73
2021/10/15 05:26:30;;;;;;;9.90;9.10;;;;;;;12.32;79.97;98864.81;5093544;27;20215;-67
2021/10/15 05:28:58;;;;;;;9.47;8.70;;;;;;;12.34;79.85;98869.03;5100949;28;20242;-67
2021/10/15 05:31:26;;;;;;;9.47;8.70;;;;;;;12.34;80.52;98868.19;5108461;28;20910;-67
2021/10/15 05:33:55;;;;;;;10.07;9.20;;;;;;;12.39;79.44;98865.84;5107253;28;20618;-67
2021/10/15 05:36:23;;;;;;;10.57;9.67;;;;;;;12.41;79.42;98870.06;5107800;28;20586;-67
2021/10/15 05:38:53;;;;;;;10.70;9.80;;;;;;;12.38;79.85;98867.69;5107171;28;20217;-66
2021/10/15 05:41:21;;;;;;;10.37;9.50;;;;;;;12.30;81.25;98882.97;5107613;28;20254;-67
2021/10/15 05:43:49;;;;;;;10.97;10.00;;;;;;;12.28;80.58;98901.13;5107296;28;20746;-66
2021/10/15 05:46:17;;;;;;;10.73;9.83;;;;;;;12.04;79.30;98853.41;5107889;28;20208;-66
2021/10/15 05:48:45;;;;;;;10.80;9.90;;;;;;;12.33;78.98;98907.72;5107724;28;20332;-67
2021/10/15 05:51:15;;;;;;;10.40;9.50;;;;;;;12.43;76.14;98910.28;5107487;28;20198;-66
2021/10/15 05:53:44;;;;;;;11.20;10.20;;;;;;;12.35;75.79;98896.78;5107625;28;20681;-66
2021/10/15 05:56:35;;;;;;;11.20;10.20;;;;;;;12.22;75.50;98893.69;5107562;28;20673;-66
2021/10/15 05:59:04;;;;;;;10.57;9.67;;;;;;;12.13;75.31;98898.19;5107272;28;20206;-66
2021/10/15 06:01:34;;;;;;;10.60;9.70;;;;;;;11.84;75.24;98846.56;5107700;28;20579;-67
2021/10/15 06:04:35;;;;;;;10.40;9.50;;;;;;;12.07;75.59;98885.38;5106257;28;20650;-66
2021/10/15 06:15:28;;;;;;;9.23;8.50;;;;;;;11.95;75.45;98909.00;5102618;28;20207;-72
2021/10/15 06:17:57;;;;;;;9.53;8.73;;;;;;;11.91;75.97;98907.63;5107191;28;20950;-72
2021/10/15 06:20:25;;;;;;;9.53;8.73;;;;;;;11.98;75.27;98919.47;5107510;28;20207;-72
2021/10/15 06:22:54;;;;;;;9.60;8.80;;;;;;;12.09;75.05;98912.97;5107070;28;20213;-72
2021/10/15 06:25:22;;;;;;;9.37;8.60;;;;;;;12.11;75.20;98917.16;5107970;28;20675;-72
2021/10/15 06:27:51;;;;;;;9.27;8.50;;;;;;;12.03;75.52;98897.44;5110761;28;20569;-72
2021/10/15 06:30:24;;;;;;;9.37;8.60;;;;;;;12.27;75.19;98934.44;5111155;28;20216;-72
2021/10/15 06:32:52;;;;;;;9.90;9.10;;;;;;;12.29;75.88;98935.97;5110711;28;20697;-72
2021/10/15 06:35:21;;;;;;;9.90;9.10;;;;;;;12.30;74.64;98924.19;5110996;28;20201;-72
2021/10/15 06:37:49;;;;;;;9.57;8.77;;;;;;;12.25;74.92;98937.28;5092573;28;20382;-72
2021/10/15 06:40:19;;;;;;;10.30;9.40;;;;;;;12.37;74.83;98932.47;5092858;28;20214;-72
2021/10/15 06:42:48;;;;;;;10.50;9.60;;;;;;;12.36;74.85;98941.53;5096840;28;20520;-72
2021/10/15 06:45:16;;;;;;;10.70;9.73;;;;;;;12.39;74.95;98939.38;5111328;28;20553;-73
2021/10/15 06:47:44;;;;;;;11.67;10.60;;;;;;;12.51;74.28;98948.00;5110806;28;20224;-72
2021/10/15 06:50:12;;;;;;;11.47;10.43;;;;;;;12.57;73.32;98947.38;5111059;28;20562;-72
2021/10/15 06:52:46;;;;;;;11.30;10.30;;;;;;;12.60;72.73;98949.75;5110722;28;20208;-73
2021/10/15 06:55:15;;;;;;;10.90;9.93;;;;;;;12.59;72.81;98953.44;5111141;28;20569;-72
2021/10/15 06:57:45;;;;;;;11.40;10.40;;;;;;;12.49;73.17;98944.63;5110765;28;20214;-72
2021/10/15 07:00:14;;;;;;;11.37;10.37;;;;;;;12.62;72.79;98957.66;5110499;28;20628;-72
2021/10/15 07:02:43;;;;;;;11.53;10.50;;;;;;;12.55;72.44;98961.97;5110557;28;20665;-72
2021/10/15 07:05:12;;;;;;;10.90;9.97;;;;;;;12.51;72.16;98956.09;5110081;28;20690;-72
2021/10/15 07:07:40;;;;;;;11.50;10.47;;;;;;;12.60;71.23;98963.22;5110519;28;20290;-66
2021/10/15 07:10:10;;;;;;;10.97;10.00;;;;;;;12.60;71.56;98965.06;5110228;28;20194;-65
2021/10/15 07:12:39;;;;;;;10.43;9.53;;;;;;;12.48;70.98;98960.94;5110689;28;20256;-66
2021/10/15 07:15:12;;;;;;;9.00;8.30;;;;;;;12.32;71.16;98932.09;5110146;28;20474;-66
2021/10/15 07:17:41;;;;;;;8.90;8.20;;;;;;;12.48;70.82;98960.94;5110846;28;20198;-72
2021/10/15 07:20:11;;;;;;;8.47;7.80;;;;;;;12.39;70.60;98974.38;5109959;28;20663;-66
2021/10/15 07:22:39;;;;;;;8.33;7.70;;;;;;;12.28;70.97;98976.50;5110679;28;20571;-66
2021/10/15 07:25:09;;;;;;;8.47;7.80;;;;;;;12.23;71.02;98973.41;5109637;28;20215;-66
2021/10/15 07:27:37;;;;;;;8.17;7.57;;;;;;;12.20;71.31;98981.81;5110225;28;20236;-72
2021/10/15 07:30:08;;;;;;;7.63;7.03;;;;;;;12.22;71.24;98982.50;5091419;28;20213;-72
2021/10/15 07:32:38;;;;;;;7.80;7.20;;;;;;;12.32;71.10;98977.88;5110158;28;20324;-72
2021/10/15 07:35:07;;;;;;;8.20;7.57;;;;;;;12.28;71.05;98963.03;5109519;28;20277;-66
2021/10/15 07:37:36;;;;;;;8.37;7.73;;;;;;;12.34;70.76;98957.00;5109810;28;20203;-66
2021/10/15 07:40:05;;;;;;;8.60;7.93;;;;;;;12.39;70.54;98968.16;5091316;28;20236;-66
2021/10/15 07:42:33;;;;;;;8.73;8.07;;;;;;;12.51;70.68;98983.00;5109863;28;20195;-66
2021/10/15 07:45:01;;;;;;;8.90;8.20;;;;;;;12.42;69.58;98968.66;5109442;28;20721;-66
2021/10/15 07:47:33;;;;;;;8.87;8.17;;;;;;;12.33;69.84;98974.16;5110179;28;20202;-66
2021/10/15 07:50:02;;;;;;;9.10;8.40;;;;;;;12.39;69.37;98968.16;5091057;28;20226;-66
2021/10/15 07:52:30;;;;;;;8.23;7.60;;;;;;;12.34;69.21;98986.63;5109441;28;20208;-66
2021/10/15 07:54:59;;;;;;;7.63;7.10;;;;;;;12.22;69.22;98988.72;5109408;28;20228;-72
2021/10/15 07:57:27;;;;;;;6.87;6.37;;;;;;;12.16;70.14;98999.28;5109570;28;20206;-66
2021/10/15 07:59:55;;;;;;;6.47;6.00;;;;;;;12.11;69.69;98992.50;5109088;28;20200;-66
2021/10/15 08:02:25;;;;;;;8.07;7.47;;;;;;;12.21;69.85;98988.88;5109694;28;20216;-66
2021/10/15 08:04:54;;;;;;;8.27;7.63;;;;;;;12.07;69.76;98979.53;5108924;28;20279;-66
2021/10/15 08:07:23;;;;;;;8.23;7.63;;;;;;;12.15;70.12;98990.34;5109658;28;20837;-66
2021/10/15 08:09:51;;;;;;;8.13;7.50;;;;;;;12.27;69.58;99001.72;5108690;28;20212;-65
2021/10/15 08:12:19;;;;;;;7.87;7.27;;;;;;;12.39;69.54;99003.13;5109413;28;20580;-72
2021/10/15 08:14:47;;;;;;;8.40;7.77;;;;;;;12.39;69.76;98995.06;5109109;28;20302;-66
2021/10/15 08:17:16;;;;;;;8.37;7.73;;;;;;;12.53;69.24;99001.69;5109232;28;20713;-66
2021/10/15 08:19:44;;;;;;;8.23;7.60;;;;;;;12.54;69.05;99006.06;5109240;28;20216;-66
2021/10/15 08:22:12;;;;;;;9.53;8.80;;;;;;;12.49;68.86;98994.94;5108582;28;20197;-66
2021/10/15 08:24:43;;;;;;;9.27;8.53;;;;;;;12.51;68.45;99003.69;5109197;28;20286;-66
2021/10/15 08:27:11;;;;;;;9.77;8.97;;;;;;;12.38;67.70;99005.00;5108499;28;20202;-66
2021/10/15 08:29:39;;;;;;;10.60;9.70;;;;;;;12.51;68.57;99009.94;5108836;28;20216;-66
2021/10/15 08:32:09;;;;;;;10.20;9.30;;;;;;;12.55;69.13;99005.94;5108305;28;20211;-66
2021/10/15 08:34:37;;;;;;;10.77;9.87;;;;;;;12.54;68.14;99012.31;5108878;28;20689;-66
2021/10/15 08:37:06;;;;;;;10.83;9.90;;;;;;;12.39;68.19;98995.06;5090054;28;20225;-66
2021/10/15 08:39:35;;;;;;;10.97;10.00;;;;;;;12.57;68.33;99020.09;5109070;28;20418;-66
2021/10/15 08:42:05;;;;;;;10.80;9.87;;;;;;;12.38;67.39;98994.22;5108471;28;20259;-66
2021/10/15 08:44:34;;;;;;;10.97;10.03;;;;;;;12.50;67.59;99023.56;5094909;28;20204;-66
2021/10/15 08:47:03;;;;;;;9.93;9.13;;;;;;;12.58;66.59;99029.84;5108340;28;20204;-65
2021/10/15 08:49:51;;;;;;;8.30;7.70;;;;;;;12.61;67.73;99018.75;5108034;28;20253;-65
2021/10/15 08:52:20;;;;;;;8.30;7.67;;;;;;;12.62;67.71;99023.16;5108431;28;20204;-66
2021/10/15 08:54:48;;;;;;;10.20;9.37;;;;;;;12.57;66.01;99019.25;5108478;28;20820;-65
2021/10/15 08:57:17;;;;;;;9.17;8.43;;;;;;;12.51;66.78;99009.94;5108600;28;20198;-65
2021/10/15 08:59:49;;;;;;;9.47;8.73;;;;;;;12.49;66.77;99017.31;5108461;28;20201;-65
2021/10/15 09:02:19;;;;;;;9.67;8.90;;;;;;;12.55;66.04;99014.03;5108553;28;20223;-71
2021/10/15 09:04:52;;;;;;;9.67;8.90;;;;;;;12.67;67.22;99020.81;5108272;28;20671;-72
2021/10/15 09:07:22;;;;;;;9.40;8.70;;;;;;;12.76;65.44;99024.38;5108206;28;20236;-65
2021/10/15 09:09:56;;;;;;;9.57;8.77;;;;;;;12.78;67.01;99016.97;5108017;28;20211;-65
2021/10/15 09:12:26;;;;;;;9.57;8.80;;;;;;;12.86;66.27;99021.59;5090153;28;20273;-66
2021/10/15 09:15:07;;;;;;;9.57;8.80;;;;;;;12.89;66.63;99021.28;5107667;28;20216;-72
2021/10/15 09:17:42;;;;;;;9.90;9.10;;;;;;;12.83;65.29;99019.19;5108433;28;20731;-72
2021/10/15 09:20:10;;;;;;;10.23;9.37;;;;;;;12.86;64.36;99029.69;5107880;28;20467;-72
2021/10/15 09:22:40;;;;;;;11.33;10.33;;;;;;;12.80;64.19;99024.91;5108300;28;20214;-72
2021/10/15 09:25:12;;;;;;;10.63;9.73;;;;;;;12.84;64.86;99032.50;5107553;28;20293;-66
2021/10/15 09:27:43;;;;;;;10.97;10.03;;;;;;;12.85;65.09;99033.34;5107886;28;20705;-66
2021/10/15 09:30:13;;;;;;;10.60;9.70;;;;;;;12.81;65.90;99027.44;5107267;28;20219;-65
2021/10/15 09:32:44;;;;;;;11.10;10.13;;;;;;;12.75;65.93;99018.16;5108138;28;20541;-65
2021/10/15 09:35:14;;;;;;;8.37;7.67;;;;;;;12.67;65.40;99010.03;5089206;28;20227;-65
2021/10/15 09:37:44;;;;;;;10.83;9.90;;;;;;;12.64;65.05;99010.38;5108045;28;20746;-66
2021/10/15 09:40:15;;;;;;;10.53;9.60;;;;;;;12.71;64.29;99016.78;5107549;28;20205;-66
2021/10/15 09:42:47;;;;;;;11.10;10.13;;;;;;;12.81;64.78;99011.28;5107715;28;20571;-66
2021/10/15 09:45:18;;;;;;;11.40;10.40;;;;;;;12.96;65.01;99022.31;5108123;28;20193;-66
2021/10/15 09:47:47;;;;;;;11.53;10.53;;;;;;;13.06;63.83;99015.78;5107881;28;20282;-65
2021/10/15 09:50:16;;;;;;;11.97;10.90;;;;;;;13.07;65.62;99003.13;5107874;28;20207;-66
2021/10/15 09:52:47;;;;;;;11.93;10.87;;;;;;;13.30;64.60;99039.31;5107690;28;20555;-65
2021/10/15 09:55:20;;;;;;;12.63;11.47;;;;;;;13.31;63.97;99041.00;5107412;28;20229;-65
2021/10/15 09:57:51;;;;;;;12.10;11.00;;;;;;;13.41;63.95;99040.00;5108010;28;20203;-66
2021/10/15 10:00:21;;;;;;;12.73;11.57;;;;;;;13.48;64.39;99035.66;5108389;28;20214;-66
2021/10/15 10:02:49;;;;;;;12.53;11.40;;;;;;;13.37;62.50;99034.09;5111670;28;20195;-65
2021/10/15 10:05:19;;;;;;;12.93;11.73;;;;;;;13.37;62.77;99052.97;5111933;28;20201;-66
2021/10/15 10:07:49;;;;;;;12.70;11.53;;;;;;;13.10;61.56;99018.13;5111443;28;20204;-66
2021/10/15 10:10:19;;;;;;;12.13;11.07;;;;;;;13.39;64.10;99042.88;5111900;28;20718;-66
2021/10/15 10:12:48;;;;;;;11.77;10.77;;;;;;;13.23;62.92;99027.50;5111505;28;20207;-66
2021/10/15 10:15:20;;;;;;;11.87;10.83;;;;;;;13.53;63.95;99058.44;5111593;28;20539;-66
2021/10/15 10:17:52;;;;;;;11.90;10.87;;;;;;;13.69;64.32;99049.53;5093384;28;20210;-65
2021/10/15 10:20:26;;;;;;;12.10;11.03;;;;;;;13.80;63.94;99045.69;5111244;28;20253;-65
2021/10/15 10:23:02;;;;;;;12.27;11.17;;;;;;;13.83;63.32;99062.38;5111367;28;20207;-66
2021/10/15 10:25:32;;;;;;;12.17;11.10;;;;;;;13.67;62.58;99068.56;5111338;28;20209;-66
2021/10/15 10:28:19;;;;;;;11.60;10.60;;;;;;;13.55;62.25;99063.66;5110961;28;20227;-65
2021/10/15 10:30:51;;;;;;;11.63;10.63;;;;;;;13.61;60.93;99087.28;5110930;28;20742;-66
2021/10/15 10:33:21;;;;;;;11.23;10.30;;;;;;;13.43;62.65;99070.34;5111312;28;20292;-66
2021/10/15 10:35:51;;;;;;;11.43;10.43;;;;;;;13.48;61.86;99073.44;5110993;28;20218;-66
2021/10/15 10:38:31;;;;;;;11.00;10.10;;;;;;;13.48;61.95;99092.31;5111309;28;20226;-65
2021/10/15 10:41:21;;;;;;;10.47;9.60;;;;;;;13.42;62.04;99098.31;5110772;28;20207;-66
2021/10/15 10:44:22;;;;;;;10.10;9.30;;;;;;;13.31;64.09;99094.94;5111037;28;20214;-66
2021/10/15 10:47:09;;;;;;;9.97;9.17;;;;;;;13.14;64.16;99120.06;5111123;28;20205;-66
2021/10/15 10:49:37;;;;;;;9.07;8.37;;;;;;;12.95;64.81;99141.88;5110724;28;20739;-66
2021/10/15 10:52:20;;;;;;;8.83;8.13;;;;;;;12.77;65.86;99123.06;5110344;28;20214;-65
2021/10/15 10:54:49;;;;;;;7.90;7.30;;;;;;;12.73;66.10;99127.06;5097499;28;20235;-65
2021/10/15 10:57:21;;;;;;;6.97;6.47;;;;;;;12.66;66.68;99134.94;5110710;28;20220;-65
2021/10/15 10:59:51;;;;;;;6.77;6.30;;;;;;;12.52;67.74;99145.41;5110708;28;20220;-65
2021/10/15 11:02:22;;;;;;;6.53;6.07;;;;;;;12.47;68.05;99148.56;5110703;28;20206;-65
2021/10/15 11:05:00;;;;;;;6.33;5.90;;;;;;;12.37;68.44;99154.06;5110439;28;20289;-65
2021/10/15 11:07:29;;;;;;;5.90;5.50;;;;;;;12.40;68.83;99158.28;5110809;28;20200;-65
2021/10/15 11:10:05;;;;;;;6.43;6.00;;;;;;;12.31;69.05;99164.59;5110092;28;20205;-66
2021/10/15 11:13:06;;;;;;;5.70;5.30;;;;;;;12.43;69.49;99180.34;5110137;28;20239;-66
2021/10/15 11:15:34;;;;;;;6.30;5.87;;;;;;;12.45;68.17;99180.19;5017333;28;20749;-66
2021/10/15 11:18:04;;;;;;;5.97;5.57;;;;;;;12.24;68.76;99190.41;5026927;28;20747;-66
2021/10/15 11:20:37;;;;;;;5.73;5.33;;;;;;;11.93;68.09;99209.59;5061206;28;20222;-66
2021/10/15 11:23:08;;;;;;;5.13;4.80;;;;;;;11.86;68.85;99215.72;5109886;28;20206;-66
2021/10/15 11:25:38;;;;;;;3.80;3.60;;;;;;;11.76;68.54;99213.06;5110182;28;20233;-66
2021/10/15 11:28:08;;;;;;;4.37;4.10;;;;;;;11.83;69.44;99230.31;5109865;28;20584;-66
2021/10/15 11:30:39;;;;;;;4.33;4.07;;;;;;;11.75;69.23;99228.34;5110208;28;20699;-66
2021/10/15 11:33:11;;;;;;;5.90;5.50;;;;;;;11.75;68.10;99232.88;5109818;28;20218;-66
2021/10/15 11:35:42;;;;;;;4.57;4.30;;;;;;;11.60;67.78;99237.03;5110117;28;20256;-66
2021/10/15 11:38:13;;;;;;;4.37;4.07;;;;;;;11.62;68.19;99249.34;5109794;28;20205;-66
2021/10/15 11:40:43;;;;;;;3.90;3.70;;;;;;;11.61;68.21;99257.56;5110087;28;20206;-66
2021/10/15 11:43:17;;;;;;;3.93;3.73;;;;;;;11.69;65.65;99274.69;5091114;28;20218;-66
2021/10/15 11:45:47;;;;;;;3.13;2.97;;;;;;;11.75;67.01;99262.47;5109770;28;20280;-66
2021/10/15 11:48:19;;;;;;;2.50;2.40;;;;;;;11.87;66.25;99272.06;5109494;28;20549;-66
2021/10/15 11:50:57;;;;;;;2.37;2.27;;;;;;;11.82;60.85;99299.41;5109356;28;20544;-66